sensor_id;sensor_type;location;lat;lon;timestamp;pressure;altitude;pressure_sealevel;temperature;humidity
51468;BME280;37545;45.302;-122.946;2023-04-07T00:00:29;100198.78;;;13.84;100.00
51468;BME280;37545;45.302;-122.946;2023-04-07T00:02:58;100186.66;;;13.81;100.00
51468;BME280;37545;45.302;-122.946;2023-04-07T00:05:27;100188.38;;;13.79;100.00
51468;BME280;37545;45.302;-122.946;2023-04-07T00:07:56;100169.16;;;13.65;100.00
51468;BME280;37545;45.302;-122.946;2023-04-07T00:10:26;100184.88;;;13.77;100.00
51468;BME280;37545;45.302;-122.946;2023-04-07T00:12:54;100181.41;;;13.80;100.00
51468;BME280;37545;45.302;-122.946;2023-04-07T00:15:23;100177.97;;;13.79;100.00
51468;BME280;37545;45.302;-122.946;2023-04-07T00:17:52;100173.63;;;13.81;100.00
51468;BME280;37545;45.302;-122.946;2023-04-07T00:20:20;100174.47;;;13.80;100.00
51468;BME280;37545;45.302;-122.946;2023-04-07T00:22:49;100163.16;;;13.74;100.00
51468;BME280;37545;45.302;-122.946;2023-04-07T00:25:18;100169.28;;;13.79;100.00
51468;BME280;37545;45.302;-122.946;2023-04-07T00:27:48;100163.22;;;13.77;100.00
51468;BME280;37545;45.302;-122.946;2023-04-07T00:30:16;100165.81;;;13.78;100.00
51468;BME280;37545;45.302;-122.946;2023-04-07T00:32:45;100168.41;;;13.78;100.00
51468;BME280;37545;45.302;-122.946;2023-04-07T00:35:13;100168.41;;;13.77;100.00
51468;BME280;37545;45.302;-122.946;2023-04-07T00:37:42;100168.38;;;13.74;100.00
51468;BME280;37545;45.302;-122.946;2023-04-07T00:40:11;100165.75;;;13.71;100.00
51468;BME280;37545;45.302;-122.946;2023-04-07T00:42:39;100164.03;;;13.71;100.00
51468;BME280;37545;45.302;-122.946;2023-04-07T00:45:10;100167.50;;;13.70;100.00
51468;BME280;37545;45.302;-122.946;2023-04-07T00:47:39;100169.19;;;13.67;100.00
51468;BME280;37545;45.302;-122.946;2023-04-07T00:50:08;100167.44;;;13.67;100.00
51468;BME280;37545;45.302;-122.946;2023-04-07T00:52:37;100171.78;;;13.67;100.00
51468;BME280;37545;45.302;-122.946;2023-04-07T00:55:07;100170.06;;;13.66;100.00
51468;BME280;37545;45.302;-122.946;2023-04-07T00:57:36;100163.09;;;13.65;100.00
51468;BME280;37545;45.302;-122.946;2023-04-07T01:00:06;100170.06;;;13.66;100.00
51468;BME280;37545;45.302;-122.946;2023-04-07T01:02:41;100171.78;;;13.64;100.00
51468;BME280;37545;45.302;-122.946;2023-04-07T01:05:15;100173.50;;;13.63;100.00
51468;BME280;37545;45.302;-122.946;2023-04-07T01:07:53;100172.63;;;13.61;100.00
51468;BME280;37545;45.302;-122.946;2023-04-07T01:10:31;100163.91;;;13.56;100.00
51468;BME280;37545;45.302;-122.946;2023-04-07T01:13:05;100171.75;;;13.59;100.00
51468;BME280;37545;45.302;-122.946;2023-04-07T01:15:37;100179.50;;;13.57;100.00
51468;BME280;37545;45.302;-122.946;2023-04-07T01:18:13;100171.69;;;13.54;100.00
51468;BME280;37545;45.302;-122.946;2023-04-07T01:20:43;100182.09;;;13.56;100.00
51468;BME280;37545;45.302;-122.946;2023-04-07T01:23:19;100184.69;;;13.56;100.00
51468;BME280;37545;45.302;-122.946;2023-04-07T01:26:03;100179.50;;;13.54;100.00
51468;BME280;37545;45.302;-122.946;2023-04-07T01:28:55;100180.28;;;13.46;100.00
51468;BME280;37545;45.302;-122.946;2023-04-07T01:31:27;100188.09;;;13.49;100.00
51468;BME280;37545;45.302;-122.946;2023-04-07T01:33:58;100187.22;;;13.45;100.00
51468;BME280;37545;45.302;-122.946;2023-04-07T01:36:27;100190.66;;;13.41;100.00
51468;BME280;37545;45.302;-122.946;2023-04-07T01:38:58;100198.47;;;13.43;100.00
51468;BME280;37545;45.302;-122.946;2023-04-07T01:41:27;100194.97;;;13.40;100.00
51468;BME280;37545;45.302;-122.946;2023-04-07T01:43:57;100190.63;;;13.39;100.00
51468;BME280;37545;45.302;-122.946;2023-04-07T01:46:28;100190.56;;;13.35;100.00
51468;BME280;37545;45.302;-122.946;2023-04-07T01:48:57;100194.00;;;13.31;100.00
51468;BME280;37545;45.302;-122.946;2023-04-07T01:51:27;100189.63;;;13.27;100.00
51468;BME280;37545;45.302;-122.946;2023-04-07T01:53:56;100196.53;;;13.26;100.00
51468;BME280;37545;45.302;-122.946;2023-04-07T01:56:26;100192.16;;;13.24;100.00
51468;BME280;37545;45.302;-122.946;2023-04-07T01:58:55;100197.34;;;13.20;100.00
51468;BME280;37545;45.302;-122.946;2023-04-07T02:01:24;100203.38;;;13.18;100.00
51468;BME280;37545;45.302;-122.946;2023-04-07T02:03:58;100202.47;;;13.14;100.00
51468;BME280;37545;45.302;-122.946;2023-04-07T02:06:32;100208.50;;;13.09;100.00
51468;BME280;37545;45.302;-122.946;2023-04-07T02:09:05;100203.28;;;13.06;100.00
51468;BME280;37545;45.302;-122.946;2023-04-07T02:11:35;100210.16;;;13.05;100.00
51468;BME280;37545;45.302;-122.946;2023-04-07T02:14:06;100209.28;;;13.02;100.00
51468;BME280;37545;45.302;-122.946;2023-04-07T02:16:36;100212.72;;;12.99;100.00
51468;BME280;37545;45.302;-122.946;2023-04-07T02:19:07;100218.75;;;12.96;100.00
51468;BME280;37545;45.302;-122.946;2023-04-07T02:21:37;100216.97;;;12.94;100.00
51468;BME280;37545;45.302;-122.946;2023-04-07T02:24:07;100216.09;;;12.90;100.00
51468;BME280;37545;45.302;-122.946;2023-04-07T02:26:38;100224.72;;;12.88;100.00
51468;BME280;37545;45.302;-122.946;2023-04-07T02:29:07;100222.94;;;12.84;100.00
51468;BME280;37545;45.302;-122.946;2023-04-07T02:31:35;100222.06;;;12.83;100.00
51468;BME280;37545;45.302;-122.946;2023-04-07T02:34:06;100222.91;;;12.81;100.00
51468;BME280;37545;45.302;-122.946;2023-04-07T02:36:34;100223.72;;;12.78;100.00
51468;BME280;37545;45.302;-122.946;2023-04-07T02:39:03;100216.75;;;12.75;100.00
51468;BME280;37545;45.302;-122.946;2023-04-07T02:41:32;100220.22;;;12.74;100.00
51468;BME280;37545;45.302;-122.946;2023-04-07T02:44:00;100223.66;;;12.73;100.00
51468;BME280;37545;45.302;-122.946;2023-04-07T02:46:29;100225.38;;;12.73;100.00
51468;BME280;37545;45.302;-122.946;2023-04-07T02:48:57;100224.50;;;12.69;100.00
51468;BME280;37545;45.302;-122.946;2023-04-07T02:51:27;100210.56;;;12.63;100.00
51468;BME280;37545;45.302;-122.946;2023-04-07T02:53:56;100218.38;;;12.66;100.00
51468;BME280;37545;45.302;-122.946;2023-04-07T02:56:25;100215.75;;;12.64;100.00
51468;BME280;37545;45.302;-122.946;2023-04-07T02:58:53;100218.31;;;12.61;100.00
51468;BME280;37545;45.302;-122.946;2023-04-07T03:01:22;100219.19;;;12.60;100.00
51468;BME280;37545;45.302;-122.946;2023-04-07T03:03:51;100224.38;;;12.60;100.00
51468;BME280;37545;45.302;-122.946;2023-04-07T03:06:19;100220.88;;;12.58;100.00
51468;BME280;37545;45.302;-122.946;2023-04-07T03:08:49;100220.00;;;12.56;100.00
51468;BME280;37545;45.302;-122.946;2023-04-07T03:11:18;100227.75;;;12.54;100.00
51468;BME280;37545;45.302;-122.946;2023-04-07T03:13:46;100226.00;;;12.52;100.00
51468;BME280;37545;45.302;-122.946;2023-04-07T03:16:15;100236.28;;;12.46;100.00
51468;BME280;37545;45.302;-122.946;2023-04-07T03:18:44;100232.78;;;12.44;100.00
51468;BME280;37545;45.302;-122.946;2023-04-07T03:21:12;100232.78;;;12.44;100.00
51468;BME280;37545;45.302;-122.946;2023-04-07T03:23:41;100240.50;;;12.39;100.00
51468;BME280;37545;45.302;-122.946;2023-04-07T03:26:12;100249.16;;;12.38;100.00
51468;BME280;37545;45.302;-122.946;2023-04-07T03:28:41;100239.50;;;12.29;100.00
51468;BME280;37545;45.302;-122.946;2023-04-07T03:31:10;100251.66;;;12.30;100.00
51468;BME280;37545;45.302;-122.946;2023-04-07T03:33:39;100258.56;;;12.31;100.00
51468;BME280;37545;45.302;-122.946;2023-04-07T03:36:08;100253.28;;;12.25;100.00
51468;BME280;37545;45.302;-122.946;2023-04-07T03:38:36;100253.28;;;12.25;100.00
51468;BME280;37545;45.302;-122.946;2023-04-07T03:41:05;100260.19;;;12.25;100.00
51468;BME280;37545;45.302;-122.946;2023-04-07T03:43:35;100255.00;;;12.23;100.00
51468;BME280;37545;45.302;-122.946;2023-04-07T03:46:04;100257.59;;;12.25;100.00
51468;BME280;37545;45.302;-122.946;2023-04-07T03:48:33;100257.59;;;12.23;100.00
51468;BME280;37545;45.302;-122.946;2023-04-07T03:51:02;100265.38;;;12.23;100.00
51468;BME280;37545;45.302;-122.946;2023-04-07T03:53:31;100268.84;;;12.24;100.00
51468;BME280;37545;45.302;-122.946;2023-04-07T03:56:00;100287.88;;;12.24;100.00
51468;BME280;37545;45.302;-122.946;2023-04-07T03:58:28;100274.03;;;12.24;100.00
51468;BME280;37545;45.302;-122.946;2023-04-07T04:00:58;100281.81;;;12.24;100.00
51468;BME280;37545;45.302;-122.946;2023-04-07T04:03:27;100280.88;;;12.20;100.00
51468;BME280;37545;45.302;-122.946;2023-04-07T04:05:55;100279.94;;;12.15;100.00
51468;BME280;37545;45.302;-122.946;2023-04-07T04:08:24;100287.75;;;12.18;100.00
51468;BME280;37545;45.302;-122.946;2023-04-07T04:10:59;100279.97;;;12.18;100.00
51468;BME280;37545;45.302;-122.946;2023-04-07T04:13:28;100291.25;;;12.20;100.00
51468;BME280;37545;45.302;-122.946;2023-04-07T04:15:59;100293.03;;;12.21;100.00
51468;BME280;37545;45.302;-122.946;2023-04-07T04:18:27;100289.53;;;12.21;100.00
51468;BME280;37545;45.302;-122.946;2023-04-07T04:20:56;100291.25;;;12.20;100.00
51468;BME280;37545;45.302;-122.946;2023-04-07T04:23:25;100286.97;;;12.22;100.00
51468;BME280;37545;45.302;-122.946;2023-04-07T04:25:59;100293.91;;;12.23;100.00
51468;BME280;37545;45.302;-122.946;2023-04-07T04:28:29;100295.66;;;12.24;100.00
51468;BME280;37545;45.302;-122.946;2023-04-07T04:30:59;100293.09;;;12.27;100.00
51468;BME280;37545;45.302;-122.946;2023-04-07T04:33:28;100303.53;;;12.30;100.00
51468;BME280;37545;45.302;-122.946;2023-04-07T04:35:56;100304.38;;;12.28;100.00
51468;BME280;37545;45.302;-122.946;2023-04-07T04:38:25;100301.75;;;12.26;100.00
51468;BME280;37545;45.302;-122.946;2023-04-07T04:40:53;100303.47;;;12.27;100.00
51468;BME280;37545;45.302;-122.946;2023-04-07T04:43:22;100308.66;;;12.27;100.00
51468;BME280;37545;45.302;-122.946;2023-04-07T04:45:50;100294.78;;;12.24;100.00
51468;BME280;37545;45.302;-122.946;2023-04-07T04:48:21;100293.06;;;12.24;100.00
51468;BME280;37545;45.302;-122.946;2023-04-07T04:50:49;100303.50;;;12.29;100.00
51468;BME280;37545;45.302;-122.946;2023-04-07T04:53:18;100306.06;;;12.27;100.00
51468;BME280;37545;45.302;-122.946;2023-04-07T04:55:46;100302.59;;;12.27;100.00
51468;BME280;37545;45.302;-122.946;2023-04-07T04:58:18;100308.66;;;12.26;100.00
51468;BME280;37545;45.302;-122.946;2023-04-07T05:00:46;100306.84;;;12.22;100.00
51468;BME280;37545;45.302;-122.946;2023-04-07T05:03:15;100314.59;;;12.20;100.00
51468;BME280;37545;45.302;-122.946;2023-04-07T05:05:46;100311.97;;;12.17;100.00
51468;BME280;37545;45.302;-122.946;2023-04-07T05:08:15;100307.53;;;12.11;100.00
51468;BME280;37545;45.302;-122.946;2023-04-07T05:10:43;100315.34;;;12.13;100.00
51468;BME280;37545;45.302;-122.946;2023-04-07T05:13:11;100312.69;;;12.08;100.00
51468;BME280;37545;45.302;-122.946;2023-04-07T05:15:40;100324.78;;;12.09;100.00
51468;BME280;37545;45.302;-122.946;2023-04-07T05:18:09;100310.97;;;12.09;100.00
51468;BME280;37545;45.302;-122.946;2023-04-07T05:20:37;100312.72;;;12.10;100.00
51468;BME280;37545;45.302;-122.946;2023-04-07T05:23:07;100321.19;;;11.98;100.00
51468;BME280;37545;45.302;-122.946;2023-04-07T05:25:36;100325.53;;;12.01;100.00
51468;BME280;37545;45.302;-122.946;2023-04-07T05:28:05;100329.81;;;12.00;100.00
51468;BME280;37545;45.302;-122.946;2023-04-07T05:30:33;100332.41;;;11.99;100.00
51468;BME280;37545;45.302;-122.946;2023-04-07T05:33:02;100330.66;;;11.96;100.00
51468;BME280;37545;45.302;-122.946;2023-04-07T05:35:30;100334.94;;;11.95;100.00
51468;BME280;37545;45.302;-122.946;2023-04-07T05:37:59;100336.59;;;11.90;100.00
51468;BME280;37545;45.302;-122.946;2023-04-07T05:40:29;100334.00;;;11.90;100.00
51468;BME280;37545;45.302;-122.946;2023-04-07T05:42:58;100335.44;;;11.76;100.00
51468;BME280;37545;45.302;-122.946;2023-04-07T05:45:26;100335.44;;;11.76;100.00
51468;BME280;37545;45.302;-122.946;2023-04-07T05:47:54;100337.22;;;11.79;100.00
51468;BME280;37545;45.302;-122.946;2023-04-07T05:50:23;100334.66;;;11.80;100.00
51468;BME280;37545;45.302;-122.946;2023-04-07T05:52:51;100341.50;;;11.75;100.00
51468;BME280;37545;45.302;-122.946;2023-04-07T05:55:20;100338.91;;;11.75;100.00
51468;BME280;37545;45.302;-122.946;2023-04-07T05:57:50;100343.19;;;11.73;100.00
51468;BME280;37545;45.302;-122.946;2023-04-07T06:00:19;100342.09;;;11.63;100.00
51468;BME280;37545;45.302;-122.946;2023-04-07T06:02:48;100347.28;;;11.62;100.00
51468;BME280;37545;45.302;-122.946;2023-04-07T06:05:17;100343.78;;;11.60;100.00
51468;BME280;37545;45.302;-122.946;2023-04-07T06:07:45;100348.94;;;11.58;100.00
51468;BME280;37545;45.302;-122.946;2023-04-07T06:10:14;100348.09;;;11.59;100.00
51468;BME280;37545;45.302;-122.946;2023-04-07T06:12:43;100348.97;;;11.60;100.00
51468;BME280;37545;45.302;-122.946;2023-04-07T06:15:13;100348.09;;;11.59;100.00
51468;BME280;37545;45.302;-122.946;2023-04-07T06:17:42;100350.66;;;11.58;100.00
51468;BME280;37545;45.302;-122.946;2023-04-07T06:20:11;100354.16;;;11.60;100.00
51468;BME280;37545;45.302;-122.946;2023-04-07T06:22:39;100347.16;;;11.56;100.00
51468;BME280;37545;45.302;-122.946;2023-04-07T06:25:09;100361.97;;;11.63;100.00
51468;BME280;37545;45.302;-122.946;2023-04-07T06:27:37;100361.94;;;11.60;100.00
51468;BME280;37545;45.302;-122.946;2023-04-07T06:30:07;100361.06;;;11.61;100.00
51468;BME280;37545;45.302;-122.946;2023-04-07T06:32:37;100362.66;;;11.52;100.00
51468;BME280;37545;45.302;-122.946;2023-04-07T06:35:06;100361.84;;;11.57;100.00
51468;BME280;37545;45.302;-122.946;2023-04-07T06:37:34;100370.47;;;11.56;100.00
51468;BME280;37545;45.302;-122.946;2023-04-07T06:40:05;100370.44;;;11.52;100.00
51468;BME280;37545;45.302;-122.946;2023-04-07T06:42:35;100369.56;;;11.53;100.00
51468;BME280;37545;45.302;-122.946;2023-04-07T06:45:06;100369.63;;;11.55;100.00
51468;BME280;37545;45.302;-122.946;2023-04-07T06:47:37;100378.25;;;11.56;100.00
51468;BME280;37545;45.302;-122.946;2023-04-07T06:50:06;100375.66;;;11.56;100.00
51468;BME280;37545;45.302;-122.946;2023-04-07T06:52:35;100376.53;;;11.56;100.00
51468;BME280;37545;45.302;-122.946;2023-04-07T06:55:04;100380.84;;;11.56;100.00
51468;BME280;37545;45.302;-122.946;2023-04-07T06:57:33;100385.16;;;11.57;100.00
51468;BME280;37545;45.302;-122.946;2023-04-07T07:00:01;100390.34;;;11.57;100.00
51468;BME280;37545;45.302;-122.946;2023-04-07T07:02:33;100386.94;;;11.58;100.00
51468;BME280;37545;45.302;-122.946;2023-04-07T07:05:04;100382.63;;;11.58;100.00
51468;BME280;37545;45.302;-122.946;2023-04-07T07:07:33;100387.81;;;11.58;100.00
51468;BME280;37545;45.302;-122.946;2023-04-07T07:10:02;100383.47;;;11.59;100.00
51468;BME280;37545;45.302;-122.946;2023-04-07T07:12:31;100388.66;;;11.59;100.00
51468;BME280;37545;45.302;-122.946;2023-04-07T07:14:59;100380.91;;;11.59;100.00
51468;BME280;37545;45.302;-122.946;2023-04-07T07:17:29;100391.31;;;11.60;100.00
51468;BME280;37545;45.302;-122.946;2023-04-07T07:19:57;100399.06;;;11.60;100.00
51468;BME280;37545;45.302;-122.946;2023-04-07T07:22:27;100395.63;;;11.60;100.00
51468;BME280;37545;45.302;-122.946;2023-04-07T07:24:56;100389.56;;;11.59;100.00
51468;BME280;37545;45.302;-122.946;2023-04-07T07:27:24;100390.44;;;11.60;100.00
51468;BME280;37545;45.302;-122.946;2023-04-07T07:29:53;100393.81;;;11.56;100.00
51468;BME280;37545;45.302;-122.946;2023-04-07T07:32:22;100392.06;;;11.55;100.00
51468;BME280;37545;45.302;-122.946;2023-04-07T07:34:51;100386.88;;;11.55;100.00
51468;BME280;37545;45.302;-122.946;2023-04-07T07:37:19;100384.31;;;11.56;100.00
51468;BME280;37545;45.302;-122.946;2023-04-07T07:39:50;100384.31;;;11.56;100.00
51468;BME280;37545;45.302;-122.946;2023-04-07T07:42:19;100386.06;;;11.59;100.00
51468;BME280;37545;45.302;-122.946;2023-04-07T07:44:47;100382.66;;;11.60;100.00
51468;BME280;37545;45.302;-122.946;2023-04-07T07:47:16;100382.66;;;11.61;100.00
51468;BME280;37545;45.302;-122.946;2023-04-07T07:49:45;100387.88;;;11.63;100.00
51468;BME280;37545;45.302;-122.946;2023-04-07T07:52:13;100393.06;;;11.63;100.00
51468;BME280;37545;45.302;-122.946;2023-04-07T07:54:42;100391.38;;;11.65;100.00
51468;BME280;37545;45.302;-122.946;2023-04-07T07:57:13;100387.94;;;11.64;100.00
51468;BME280;37545;45.302;-122.946;2023-04-07T07:59:41;100382.75;;;11.64;100.00
51468;BME280;37545;45.302;-122.946;2023-04-07T08:02:10;100388.84;;;11.68;100.00
51468;BME280;37545;45.302;-122.946;2023-04-07T08:04:39;100390.56;;;11.67;100.00
51468;BME280;37545;45.302;-122.946;2023-04-07T08:07:07;100386.28;;;11.69;100.00
51468;BME280;37545;45.302;-122.946;2023-04-07T08:09:37;100386.34;;;11.71;100.00
51468;BME280;37545;45.302;-122.946;2023-04-07T08:12:05;100386.34;;;11.72;100.00
51468;BME280;37545;45.302;-122.946;2023-04-07T08:14:36;100386.34;;;11.72;100.00
51468;BME280;37545;45.302;-122.946;2023-04-07T08:17:04;100386.38;;;11.74;100.00
51468;BME280;37545;45.302;-122.946;2023-04-07T08:19:33;100385.50;;;11.73;100.00
51468;BME280;37545;45.302;-122.946;2023-04-07T08:22:01;100381.19;;;11.74;100.00
51468;BME280;37545;45.302;-122.946;2023-04-07T08:24:33;100389.00;;;11.77;100.00
51468;BME280;37545;45.302;-122.946;2023-04-07T08:27:01;100386.41;;;11.77;100.00
51468;BME280;37545;45.302;-122.946;2023-04-07T08:29:30;100389.91;;;11.78;100.00
51468;BME280;37545;45.302;-122.946;2023-04-07T08:32:00;100377.78;;;11.77;100.00
51468;BME280;37545;45.302;-122.946;2023-04-07T08:34:29;100379.56;;;11.79;100.00
51468;BME280;37545;45.302;-122.946;2023-04-07T08:36:57;100377.84;;;11.80;100.00
51468;BME280;37545;45.302;-122.946;2023-04-07T08:39:26;100383.06;;;11.81;100.00
51468;BME280;37545;45.302;-122.946;2023-04-07T08:41:55;100387.34;;;11.79;100.00
51468;BME280;37545;45.302;-122.946;2023-04-07T08:44:25;100388.19;;;11.78;100.00
51468;BME280;37545;45.302;-122.946;2023-04-07T08:46:56;100375.19;;;11.75;100.00
51468;BME280;37545;45.302;-122.946;2023-04-07T08:49:30;100379.56;;;11.79;100.00
51468;BME280;37545;45.302;-122.946;2023-04-07T08:52:01;100383.03;;;11.80;100.00
51468;BME280;37545;45.302;-122.946;2023-04-07T08:54:34;100382.22;;;11.82;100.00
51468;BME280;37545;45.302;-122.946;2023-04-07T08:57:03;100379.63;;;11.82;100.00
51468;BME280;37545;45.302;-122.946;2023-04-07T08:59:32;100370.00;;;11.77;100.00
51468;BME280;37545;45.302;-122.946;2023-04-07T09:02:02;100380.53;;;11.84;100.00
51468;BME280;37545;45.302;-122.946;2023-04-07T09:04:38;100383.09;;;11.83;100.00
51468;BME280;37545;45.302;-122.946;2023-04-07T09:07:06;100387.41;;;11.82;100.00
51468;BME280;37545;45.302;-122.946;2023-04-07T09:09:35;100384.78;;;11.81;100.00
51468;BME280;37545;45.302;-122.946;2023-04-07T09:12:03;100385.66;;;11.81;100.00
51468;BME280;37545;45.302;-122.946;2023-04-07T09:14:32;100385.66;;;11.81;100.00
51468;BME280;37545;45.302;-122.946;2023-04-07T09:17:01;100384.81;;;11.84;100.00
51468;BME280;37545;45.302;-122.946;2023-04-07T09:19:30;100382.28;;;11.85;100.00
51468;BME280;37545;45.302;-122.946;2023-04-07T09:22:01;100384.00;;;11.86;100.00
51468;BME280;37545;45.302;-122.946;2023-04-07T09:24:29;100378.81;;;11.86;100.00
51468;BME280;37545;45.302;-122.946;2023-04-07T09:27:12;100378.03;;;11.87;100.00
51468;BME280;37545;45.302;-122.946;2023-04-07T09:29:42;100373.59;;;11.83;100.00
51468;BME280;37545;45.302;-122.946;2023-04-07T09:32:11;100371.84;;;11.82;100.00
51468;BME280;37545;45.302;-122.946;2023-04-07T09:34:58;100377.78;;;11.77;100.00
51468;BME280;37545;45.302;-122.946;2023-04-07T09:37:28;100383.81;;;11.76;100.00
51468;BME280;37545;45.302;-122.946;2023-04-07T09:39:57;100375.19;;;11.75;100.00
51468;BME280;37545;45.302;-122.946;2023-04-07T09:42:27;100375.16;;;11.73;100.00
51468;BME280;37545;45.302;-122.946;2023-04-07T09:44:58;100381.97;;;11.70;100.00
51468;BME280;37545;45.302;-122.946;2023-04-07T09:47:27;100371.59;;;11.70;100.00
51468;BME280;37545;45.302;-122.946;2023-04-07T09:49:56;100385.44;;;11.69;100.00
51468;BME280;37545;45.302;-122.946;2023-04-07T09:52:51;100378.47;;;11.68;100.00
51468;BME280;37545;45.302;-122.946;2023-04-07T09:55:20;100377.59;;;11.67;100.00
51468;BME280;37545;45.302;-122.946;2023-04-07T09:57:50;100379.38;;;11.68;100.00
51468;BME280;37545;45.302;-122.946;2023-04-07T10:00:18;100377.66;;;11.69;100.00
51468;BME280;37545;45.302;-122.946;2023-04-07T10:02:47;100383.75;;;11.71;100.00
51468;BME280;37545;45.302;-122.946;2023-04-07T10:05:16;100382.88;;;11.72;100.00
51468;BME280;37545;45.302;-122.946;2023-04-07T10:07:46;100382.06;;;11.74;100.00
51468;BME280;37545;45.302;-122.946;2023-04-07T10:10:17;100382.97;;;11.75;100.00
51468;BME280;37545;45.302;-122.946;2023-04-07T10:12:46;100387.31;;;11.78;100.00
51468;BME280;37545;45.302;-122.946;2023-04-07T10:15:17;100377.78;;;11.75;100.00
51468;BME280;37545;45.302;-122.946;2023-04-07T10:17:46;100378.59;;;11.74;100.00
51468;BME280;37545;45.302;-122.946;2023-04-07T10:20:16;100382.75;;;11.66;100.00
51468;BME280;37545;45.302;-122.946;2023-04-07T10:22:47;100376.63;;;11.61;100.00
51468;BME280;37545;45.302;-122.946;2023-04-07T10:25:21;100374.81;;;11.57;100.00
51468;BME280;37545;45.302;-122.946;2023-04-07T10:27:53;100379.03;;;11.51;100.00
51468;BME280;37545;45.302;-122.946;2023-04-07T10:30:25;100378.97;;;11.48;100.00
51468;BME280;37545;45.302;-122.946;2023-04-07T10:32:55;100378.13;;;11.49;100.00
51468;BME280;37545;45.302;-122.946;2023-04-07T10:35:24;100383.31;;;11.49;100.00
51468;BME280;37545;45.302;-122.946;2023-04-07T10:38:10;100379.75;;;11.44;100.00
51468;BME280;37545;45.302;-122.946;2023-04-07T10:40:44;100376.97;;;11.35;100.00
51468;BME280;37545;45.302;-122.946;2023-04-07T10:43:36;100380.34;;;11.31;100.00
51468;BME280;37545;45.302;-122.946;2023-04-07T10:46:06;100387.16;;;11.26;100.00
51468;BME280;37545;45.302;-122.946;2023-04-07T10:48:34;100382.75;;;11.20;100.00
51468;BME280;37545;45.302;-122.946;2023-04-07T10:51:21;100388.75;;;11.19;100.00
51468;BME280;37545;45.302;-122.946;2023-04-07T10:54:22;100397.28;;;11.15;100.00
51468;BME280;37545;45.302;-122.946;2023-04-07T10:57:20;100377.38;;;11.11;100.00
51468;BME280;37545;45.302;-122.946;2023-04-07T11:00:14;100382.53;;;11.11;100.00
51468;BME280;37545;45.302;-122.946;2023-04-07T11:02:43;100375.50;;;11.05;100.00
51468;BME280;37545;45.302;-122.946;2023-04-07T11:05:21;100374.59;;;11.03;100.00
51468;BME280;37545;45.302;-122.946;2023-04-07T11:07:53;100378.84;;;11.01;100.00
51468;BME280;37545;45.302;-122.946;2023-04-07T11:10:23;100371.09;;;11.00;100.00
51468;BME280;37545;45.302;-122.946;2023-04-07T11:13:02;100362.22;;;10.90;100.00
51468;BME280;37545;45.302;-122.946;2023-04-07T11:15:33;100357.03;;;10.90;100.00
51468;BME280;37545;45.302;-122.946;2023-04-07T11:18:16;100368.41;;;10.95;100.00
51468;BME280;37545;45.302;-122.946;2023-04-07T11:20:46;100363.13;;;10.92;100.00
51468;BME280;37545;45.302;-122.946;2023-04-07T11:23:16;100368.31;;;10.92;100.00
51468;BME280;37545;45.302;-122.946;2023-04-07T11:25:46;100374.34;;;10.91;100.00
51468;BME280;37545;45.302;-122.946;2023-04-07T11:28:18;100370.78;;;10.86;100.00
51468;BME280;37545;45.302;-122.946;2023-04-07T11:30:48;100375.16;;;10.90;100.00
51468;BME280;37545;45.302;-122.946;2023-04-07T11:33:22;100380.34;;;10.90;100.00
51468;BME280;37545;45.302;-122.946;2023-04-07T11:35:52;100376.94;;;10.91;100.00
51468;BME280;37545;45.302;-122.946;2023-04-07T11:38:23;100370.88;;;10.90;100.00
51468;BME280;37545;45.302;-122.946;2023-04-07T11:40:53;100373.44;;;10.89;100.00
51468;BME280;37545;45.302;-122.946;2023-04-07T11:43:24;100371.66;;;10.88;100.00
51468;BME280;37545;45.302;-122.946;2023-04-07T11:46:07;100372.47;;;10.85;100.00
51468;BME280;37545;45.302;-122.946;2023-04-07T11:48:38;100368.09;;;10.83;100.00
51468;BME280;37545;45.302;-122.946;2023-04-07T11:51:15;100371.56;;;10.82;100.00
51468;BME280;37545;45.302;-122.946;2023-04-07T11:53:44;100374.16;;;10.83;100.00
51468;BME280;37545;45.302;-122.946;2023-04-07T11:56:14;100362.88;;;10.80;100.00
51468;BME280;37545;45.302;-122.946;2023-04-07T11:58:49;100366.22;;;10.76;100.00
51468;BME280;37545;45.302;-122.946;2023-04-07T12:01:18;100372.16;;;10.70;100.00
51468;BME280;37545;45.302;-122.946;2023-04-07T12:03:58;100364.19;;;10.62;100.00
51468;BME280;37545;45.302;-122.946;2023-04-07T12:06:27;100369.38;;;10.62;100.00
51468;BME280;37545;45.302;-122.946;2023-04-07T12:08:58;100366.78;;;10.62;100.00
51468;BME280;37545;45.302;-122.946;2023-04-07T12:11:27;100374.44;;;10.58;100.00
51468;BME280;37545;45.302;-122.946;2023-04-07T12:13:58;100378.63;;;10.53;100.00
51468;BME280;37545;45.302;-122.946;2023-04-07T12:16:30;100370.06;;;10.54;100.00
51468;BME280;37545;45.302;-122.946;2023-04-07T12:18:59;100377.94;;;10.58;100.00
51468;BME280;37545;45.302;-122.946;2023-04-07T12:21:28;100369.25;;;10.56;100.00
51468;BME280;37545;45.302;-122.946;2023-04-07T12:23:57;100358.84;;;10.55;100.00
51468;BME280;37545;45.302;-122.946;2023-04-07T12:26:26;100368.25;;;10.51;100.00